createdAt,value
2018-09-25T00:55:45.905Z,19.8
2018-09-25T00:56:34.890Z,19.9
2018-09-25T00:57:25.723Z,19.8
2018-09-25T00:58:15.259Z,19.9
2018-09-25T00:59:05.603Z,19.8
2018-09-25T00:59:54.800Z,19.8
2018-09-25T01:00:46.278Z,19.9
2018-09-25T01:01:35.765Z,19.9
2018-09-25T01:02:25.814Z,19.8
2018-09-25T01:03:15.660Z,19.8
2018-09-25T01:04:05.988Z,19.8
2018-09-25T01:04:56.005Z,19.8
2018-09-25T01:05:45.278Z,19.9
2018-09-25T01:06:35.950Z,19.9
2018-09-25T01:07:25.413Z,19.9
2018-09-25T01:08:15.968Z,19.9
2018-09-25T01:09:06.298Z,19.8
2018-09-25T01:09:55.786Z,19.8
2018-09-25T01:10:45.607Z,19.8
2018-09-25T01:11:36.294Z,19.8
2018-09-25T01:12:26.279Z,19.8
2018-09-25T01:13:16.045Z,19.8
2018-09-25T01:14:05.824Z,19.8
2018-09-25T01:14:56.536Z,19.9
2018-09-25T01:15:46.816Z,19.8
2018-09-25T01:16:36.912Z,19.8
2018-09-25T01:17:26.949Z,19.8
2018-09-25T01:18:16.421Z,19.8
2018-09-25T01:19:08.139Z,19.8
2018-09-25T01:19:56.835Z,19.8
2018-09-25T01:20:46.921Z,19.8
2018-09-25T01:21:35.833Z,19.8
2018-09-25T01:22:26.179Z,19.8
2018-09-25T01:23:17.054Z,19.8
2018-09-25T01:24:07.144Z,19.8
2018-09-25T01:24:57.315Z,19.8
2018-09-25T01:25:47.555Z,19.8
2018-09-25T01:26:37.054Z,19.8
2018-09-25T01:27:27.453Z,19.8
2018-09-25T01:28:15.807Z,19.8
2018-09-25T01:29:06.989Z,19.8
2018-09-25T01:29:57.904Z,19.8
2018-09-25T01:30:46.856Z,19.8
2018-09-25T01:31:37.726Z,19.8
2018-09-25T01:32:27.834Z,19.8
2018-09-25T01:33:17.306Z,19.8
2018-09-25T01:34:07.884Z,19.8
2018-09-25T01:34:57.493Z,19.8
2018-09-25T01:35:48.556Z,19.8
2018-09-25T01:36:38.313Z,19.8
2018-09-25T01:37:27.806Z,19.8
2018-09-25T01:38:18.781Z,19.8
2018-09-25T01:39:08.545Z,19.8
2018-09-25T01:39:58.903Z,19.8
2018-09-25T01:40:48.005Z,19.8
2018-09-25T01:41:38.725Z,19.8
2018-09-25T01:42:28.510Z,19.8
2018-09-25T01:43:18.048Z,19.8
2018-09-25T01:44:08.640Z,19.8
2018-09-25T01:44:58.133Z,19.8
2018-09-25T01:45:49.037Z,19.8
2018-09-25T01:46:39.492Z,19.8
2018-09-25T01:47:29.010Z,19.8
2018-09-25T01:48:19.525Z,19.8
2018-09-25T01:49:09.325Z,19.8
2018-09-25T01:49:59.155Z,19.8
2018-09-25T01:50:48.852Z,19.8
2018-09-25T01:51:39.482Z,19.8
2018-09-25T01:52:30.100Z,19.8
2018-09-25T01:53:19.367Z,19.8
2018-09-25T01:54:09.084Z,19.8
2018-09-25T01:54:59.834Z,19.8
2018-09-25T01:55:49.565Z,19.8
2018-09-25T01:56:39.077Z,19.8
2018-09-25T01:57:30.015Z,19.8
2018-09-25T01:58:19.440Z,19.8
2018-09-25T01:59:09.794Z,19.8
2018-09-25T01:59:59.784Z,19.8
2018-09-25T02:00:50.137Z,19.8
2018-09-25T02:01:39.937Z,19.8
2018-09-25T02:02:30.346Z,19.8
2018-09-25T02:03:20.132Z,19.8
2018-09-25T02:04:10.437Z,19.8
2018-09-25T02:04:59.944Z,19.8
2018-09-25T02:05:50.021Z,19.8
2018-09-25T02:06:40.639Z,19.8
2018-09-25T02:07:29.332Z,19.8
2018-09-25T02:08:21.023Z,19.8
2018-09-25T02:09:10.531Z,19.8
2018-09-25T02:10:00.619Z,19.8
2018-09-25T02:10:50.337Z,19.8
2018-09-25T02:11:40.699Z,19.8
2018-09-25T02:12:30.754Z,19.8
2018-09-25T02:13:21.368Z,19.8
2018-09-25T02:14:11.418Z,19.8
2018-09-25T02:15:00.946Z,19.8
2018-09-25T02:15:50.684Z,19.8
2018-09-25T02:16:41.130Z,19.8
2018-09-25T02:17:31.166Z,19.8
2018-09-25T02:18:20.994Z,19.8
2018-09-25T02:19:11.793Z,19.8
2018-09-25T02:20:01.291Z,19.8
2018-09-25T02:20:51.429Z,19.8
2018-09-25T02:21:41.171Z,19.7
2018-09-25T02:22:32.110Z,19.8
2018-09-25T02:23:22.413Z,19.8
2018-09-25T02:24:11.556Z,19.8
2018-09-25T02:25:02.275Z,19.8
2018-09-25T02:25:51.536Z,19.7
2018-09-25T02:26:40.786Z,19.7
2018-09-25T02:27:30.850Z,19.8
2018-09-25T02:28:20.865Z,19.7
2018-09-25T02:29:11.260Z,19.8
2018-09-25T02:29:59.853Z,19.8
2018-09-25T02:30:49.893Z,19.8
2018-09-25T02:31:41.395Z,19.8
2018-09-25T02:32:30.992Z,19.8
2018-09-25T02:33:21.660Z,19.8
2018-09-25T02:34:10.335Z,19.8
2018-09-25T02:35:02.755Z,19.7
2018-09-25T02:35:52.547Z,19.7
2018-09-25T02:36:43.075Z,19.7
2018-09-25T02:37:32.655Z,19.7
2018-09-25T02:38:22.429Z,19.7
2018-09-25T02:39:13.061Z,19.7
2018-09-25T02:40:02.901Z,19.7
2018-09-25T02:40:53.214Z,19.7
2018-09-25T02:41:43.242Z,19.7
2018-09-25T02:42:32.401Z,19.7
2018-09-25T02:43:23.364Z,19.7
2018-09-25T02:44:13.775Z,19.7
2018-09-25T02:45:03.497Z,19.7
2018-09-25T02:45:52.721Z,19.7
2018-09-25T02:46:44.172Z,19.7
2018-09-25T02:47:33.386Z,19.7
2018-09-25T02:48:23.739Z,19.7
2018-09-25T02:49:14.033Z,19.7
2018-09-25T02:50:02.991Z,19.7
2018-09-25T02:50:53.930Z,19.7
2018-09-25T02:51:44.236Z,19.7
2018-09-25T02:52:33.784Z,19.7
2018-09-25T02:53:24.107Z,19.7
2018-09-25T02:54:14.391Z,19.7
2018-09-25T02:55:02.590Z,19.7
2018-09-25T02:55:54.298Z,19.7
2018-09-25T02:56:44.363Z,19.7
2018-09-25T02:57:34.120Z,19.7
2018-09-25T02:58:24.494Z,19.7
2018-09-25T02:59:14.008Z,19.7
2018-09-25T03:00:04.081Z,19.6
2018-09-25T03:00:54.801Z,19.6
2018-09-25T03:01:44.321Z,19.6
2018-09-25T03:02:34.834Z,19.7
2018-09-25T03:03:24.569Z,19.6
2018-09-25T03:04:14.979Z,19.7
2018-09-25T03:05:05.242Z,19.6
2018-09-25T03:05:54.980Z,19.6
2018-09-25T03:06:45.445Z,19.6
2018-09-25T03:07:35.227Z,19.6
2018-09-25T03:08:25.522Z,19.6
2018-09-25T03:09:15.593Z,19.6
2018-09-25T03:10:05.450Z,19.6
2018-09-25T03:10:55.441Z,19.6
2018-09-25T03:11:45.210Z,19.6
2018-09-25T03:12:36.172Z,19.7
2018-09-25T03:13:25.018Z,19.6
2018-09-25T03:14:15.740Z,19.6
2018-09-25T03:15:05.764Z,19.6
2018-09-25T03:15:55.813Z,19.6
2018-09-25T03:16:45.577Z,19.6
2018-09-25T03:17:36.213Z,19.6
2018-09-25T03:18:25.787Z,19.6
2018-09-25T03:19:16.956Z,19.6
2018-09-25T03:20:06.339Z,19.6
2018-09-25T03:20:55.327Z,19.6
2018-09-25T03:21:46.042Z,19.6
2018-09-25T03:22:36.106Z,19.6
2018-09-25T03:23:25.842Z,19.6
2018-09-25T03:24:16.002Z,19.6
2018-09-25T03:25:06.349Z,19.6
2018-09-25T03:25:56.616Z,19.6
2018-09-25T03:26:46.614Z,19.6
2018-09-25T03:27:36.106Z,19.6
2018-09-25T03:28:26.204Z,19.6
2018-09-25T03:29:16.791Z,19.6
2018-09-25T03:30:07.150Z,19.6
2018-09-25T03:30:56.921Z,19.6
2018-09-25T03:31:46.839Z,19.6
2018-09-25T03:32:36.929Z,19.6
2018-09-25T03:33:26.502Z,19.6
2018-09-25T03:34:17.199Z,19.6
2018-09-25T03:35:06.624Z,19.6
2018-09-25T03:35:57.291Z,19.6
2018-09-25T03:36:47.069Z,19.6
2018-09-25T03:37:37.518Z,19.6
2018-09-25T03:38:27.524Z,19.6
2018-09-25T03:39:17.706Z,19.6
2018-09-25T03:40:07.458Z,19.6
2018-09-25T03:40:58.024Z,19.6
2018-09-25T03:41:47.671Z,19.6
2018-09-25T03:42:37.224Z,19.6
2018-09-25T03:43:27.551Z,19.6
2018-09-25T03:44:17.411Z,19.6
2018-09-25T03:45:07.706Z,19.6
2018-09-25T03:45:58.141Z,19.6
2018-09-25T03:46:47.776Z,19.6
2018-09-25T03:47:37.558Z,19.6
2018-09-25T03:48:27.358Z,19.6
2018-09-25T05:24:37.153Z,19.1
2018-09-25T05:25:26.842Z,19.1
2018-09-25T05:26:16.697Z,19.1
2018-09-25T05:27:06.472Z,19.1
2018-09-25T05:27:56.191Z,19.1
2018-09-25T05:28:47.119Z,19.1
2018-09-25T05:29:36.681Z,19.1
2018-09-25T05:30:26.867Z,19.1
2018-09-25T05:31:16.779Z,19.1
2018-09-25T05:32:05.754Z,19.1
2018-09-25T05:32:56.899Z,19.1
2018-09-25T05:33:46.114Z,19.1
2018-09-25T05:34:36.784Z,19.1
2018-09-25T05:35:27.384Z,19.1
2018-09-25T05:36:16.517Z,19.1
2018-09-25T05:37:06.614Z,19.1
2018-09-25T05:37:57.509Z,19.1
2018-09-25T05:38:47.564Z,19.1
2018-09-25T05:39:37.378Z,19.1
2018-09-25T05:40:27.985Z,19.1
2018-09-25T05:41:17.791Z,19.1
2018-09-25T05:42:08.063Z,19.1
2018-09-25T05:42:57.581Z,19.1
2018-09-25T05:43:47.936Z,19.1
2018-09-25T05:44:37.996Z,19.1
2018-09-25T05:45:27.754Z,19.1
2018-09-25T05:46:18.151Z,19.1
2018-09-25T05:47:08.170Z,19.1
2018-09-25T05:47:58.514Z,19
2018-09-25T05:48:50.073Z,19
2018-09-25T05:49:38.026Z,19
2018-09-25T05:50:28.908Z,19
2018-09-25T05:51:18.718Z,19
2018-09-25T05:52:08.368Z,19
2018-09-25T05:52:58.462Z,18.9
2018-09-25T05:53:49.754Z,18.9
2018-09-25T05:54:39.008Z,18.9
2018-09-25T05:55:28.993Z,18.9
2018-09-25T05:56:18.653Z,18.9
2018-09-25T05:57:08.971Z,18.9
2018-09-25T05:57:59.583Z,18.9
2018-09-25T05:58:49.361Z,18.9
2018-09-25T05:59:39.129Z,18.9
2018-09-25T06:00:29.478Z,18.9
2018-09-25T06:01:19.854Z,18.9
2018-09-25T06:02:09.646Z,19
2018-09-25T06:02:59.618Z,18.9
2018-09-25T06:03:49.133Z,18.9
2018-09-25T06:04:39.523Z,18.9
2018-09-25T06:05:29.783Z,18.9
2018-09-25T06:06:19.115Z,18.9
2018-09-25T06:07:09.965Z,18.9
2018-09-25T06:07:59.628Z,18.8
2018-09-25T06:08:49.794Z,18.8
2018-09-25T06:09:40.707Z,18.8
2018-09-25T06:10:29.643Z,18.8
2018-09-25T06:11:20.568Z,18.8
2018-09-25T06:12:09.768Z,18.8
2018-09-25T06:12:59.077Z,18.8
2018-09-25T06:13:50.148Z,18.8
2018-09-25T06:14:39.790Z,18.8
2018-09-25T06:15:30.093Z,18.8
2018-09-25T06:16:19.865Z,18.8
2018-09-25T06:17:09.619Z,18.8
2018-09-25T06:17:59.996Z,18.8
2018-09-25T06:18:50.388Z,18.8
2018-09-25T06:19:40.430Z,18.8
2018-09-25T06:20:31.035Z,18.8
2018-09-25T06:21:20.744Z,18.8
2018-09-25T06:22:10.211Z,18.8
2018-09-25T06:23:01.889Z,18.8
2018-09-25T06:23:50.664Z,18.8
2018-09-25T06:24:40.976Z,18.8
2018-09-25T06:25:31.081Z,18.8
2018-09-25T06:26:21.158Z,18.8
2018-09-25T06:27:10.656Z,18.8
2018-09-25T06:28:01.019Z,18.8
2018-09-25T06:28:52.969Z,18.8
2018-09-25T06:29:41.184Z,18.8
2018-09-25T06:30:32.027Z,18.8
2018-09-25T06:31:22.324Z,18.8
2018-09-25T06:32:11.416Z,18.8
2018-09-25T06:33:01.336Z,18.8
2018-09-25T06:41:22.790Z,18.8
2018-09-25T06:43:51.915Z,18.8
2018-09-25T06:44:41.304Z,18.8
2018-09-25T06:45:32.573Z,18.8
2018-09-25T06:46:23.358Z,18.8
2018-09-25T06:47:13.695Z,18.8
2018-09-25T06:48:02.783Z,18.8
2018-09-25T06:48:53.087Z,18.8
2018-09-25T06:49:42.824Z,18.8
2018-09-25T06:50:32.325Z,18.8
2018-09-25T06:51:23.053Z,18.8
2018-09-25T06:52:12.808Z,18.8
2018-09-25T06:53:03.123Z,18.8
2018-09-25T06:53:52.841Z,18.8
2018-09-25T06:55:33.273Z,18.8
2018-09-25T06:56:22.750Z,18.8
2018-09-25T06:57:13.773Z,18.8
2018-09-25T06:58:02.126Z,18.8
2018-09-25T07:02:14.411Z,18.8
2018-09-25T07:07:14.252Z,18.6
2018-09-25T07:08:03.994Z,18.6
2018-09-25T07:17:15.261Z,18.8
2018-09-25T07:21:25.478Z,18.6
2018-09-25T07:22:15.298Z,18.6
2018-09-25T07:23:05.548Z,18.6
2018-09-25T07:44:45.964Z,18.8
2018-09-25T07:46:26.042Z,18.8
2018-09-25T07:47:13.224Z,18.8
2018-09-25T07:48:07.740Z,18.8
2018-09-25T07:52:18.071Z,18.8
2018-09-25T07:57:18.561Z,18.6
2018-09-25T07:58:08.669Z,18.6
2018-09-25T08:00:37.893Z,18.6
2018-09-25T08:12:18.340Z,18.6
2018-09-25T08:18:58.512Z,18.8
2018-09-25T08:19:49.930Z,18.8
2018-09-25T08:21:28.890Z,18.8
2018-09-25T08:22:20.115Z,18.8
2018-09-25T08:23:59.422Z,18.8
2018-09-25T08:25:40.027Z,18.8
2018-09-25T08:26:30.357Z,18.8
2018-09-25T08:27:20.122Z,18.8
2018-09-25T08:28:09.705Z,18.8
2018-09-25T08:29:00.789Z,18.8
2018-09-25T08:29:52.318Z,18.8
2018-09-25T08:30:40.760Z,18.8
2018-09-25T08:31:30.470Z,18.8
2018-09-25T08:32:20.175Z,18.8
2018-09-25T08:33:10.064Z,18.8
2018-09-25T08:34:01.418Z,18.8
2018-09-25T08:34:50.735Z,18.8
2018-09-25T08:35:41.046Z,18.8
2018-09-25T08:36:30.307Z,18.8
2018-09-25T08:38:10.939Z,18.8
2018-09-25T08:39:50.384Z,18.8
2018-09-25T08:40:41.489Z,18.8
2018-09-25T08:43:10.844Z,18.8
2018-09-25T08:44:01.804Z,18.8
2018-09-25T08:44:51.708Z,18.8
2018-09-25T08:45:41.122Z,18.8
2018-09-25T08:46:31.543Z,18.8
2018-09-25T08:47:21.094Z,18.8
2018-09-25T08:49:02.099Z,18.8
2018-09-25T08:49:52.067Z,18.8
2018-09-25T08:50:41.865Z,18.8
2018-09-25T08:51:31.925Z,18.8
2018-09-25T08:52:22.235Z,18.8
2018-09-25T08:53:10.613Z,18.8
2018-09-25T08:54:02.475Z,18.8
2018-09-25T08:54:51.905Z,18.8
2018-09-25T08:55:42.260Z,18.8
2018-09-25T08:56:32.638Z,18.8
2018-09-25T08:57:22.400Z,18.8
2018-09-25T08:58:12.443Z,18.8
2018-09-25T08:59:02.823Z,18.8
2018-09-25T08:59:52.300Z,18.8
2018-09-25T09:00:42.925Z,18.8
2018-09-25T09:01:32.984Z,18.8
2018-09-25T09:02:23.060Z,18.8
2018-09-25T09:03:12.785Z,18.8
2018-09-25T09:04:02.709Z,18.8
2018-09-25T09:04:52.747Z,18.8
2018-09-25T09:05:43.574Z,18.8
2018-09-25T09:06:33.607Z,18.8
2018-09-25T09:07:22.869Z,18.8
2018-09-25T09:08:12.925Z,18.8
2018-09-25T09:09:03.560Z,18.8
2018-09-25T09:09:53.566Z,18.8
2018-09-25T09:10:43.434Z,18.8
2018-09-25T09:11:32.914Z,18.8
2018-09-25T09:12:23.761Z,18.8
2018-09-25T09:13:13.851Z,18.8
2018-09-25T09:14:03.359Z,18.8
2018-09-25T09:14:53.388Z,18.8
2018-09-25T09:15:42.294Z,18.8
2018-09-25T09:16:33.814Z,18.8
2018-09-25T09:17:22.766Z,18.8
2018-09-25T09:18:13.676Z,18.8
2018-09-25T09:19:03.711Z,18.8
2018-09-25T09:19:56.085Z,18.8
2018-09-25T09:20:43.523Z,18.8
2018-09-25T09:21:33.955Z,18.8
2018-09-25T09:39:16.175Z,18.8
2018-09-25T09:40:05.292Z,18.8
2018-09-25T09:40:55.099Z,18.8
2018-09-25T09:41:53.305Z,18.8
2018-09-25T09:42:35.652Z,18.8
2018-09-25T09:43:26.002Z,18.8
2018-09-25T09:44:15.559Z,18.8
2018-09-25T09:45:06.199Z,18.8
2018-09-25T09:45:56.249Z,18.8
2018-09-25T09:46:46.317Z,18.8
2018-09-25T09:47:35.454Z,18.8
2018-09-25T09:48:26.136Z,18.8
2018-09-25T09:49:16.439Z,18.8
2018-09-25T09:50:07.084Z,18.8
2018-09-25T09:50:55.954Z,18.8
2018-09-25T09:51:46.334Z,18.8
2018-09-25T09:52:36.203Z,18.8
2018-09-25T09:53:26.159Z,18.8
2018-09-25T09:54:15.418Z,18.8
2018-09-25T09:55:06.995Z,18.8
2018-09-25T09:55:54.908Z,18.8
2018-09-25T09:56:46.714Z,18.8
2018-09-25T09:57:36.186Z,18.8
2018-09-25T09:58:26.218Z,18.8
2018-09-25T09:59:17.156Z,18.8
2018-09-25T10:00:06.698Z,18.8
2018-09-25T10:00:56.998Z,18.8
2018-09-25T10:01:46.504Z,18.8
2018-09-25T10:02:37.445Z,18.9
2018-09-25T10:03:27.163Z,18.9
2018-09-25T10:04:16.790Z,18.9
2018-09-25T10:05:07.920Z,18.9
2018-09-25T10:05:58.097Z,18.9
2018-09-25T10:06:49.129Z,18.9
2018-09-25T10:07:37.516Z,18.9
2018-09-25T10:08:27.880Z,18.9
2018-09-25T10:09:17.955Z,18.9
2018-09-25T10:10:07.932Z,18.9
2018-09-25T10:10:56.717Z,18.9
2018-09-25T10:11:47.048Z,18.9
2018-09-25T10:12:39.493Z,18.9
2018-09-25T10:13:27.150Z,18.9
2018-09-25T10:14:17.613Z,18.9
2018-09-25T10:15:07.925Z,18.9
2018-09-25T10:15:57.893Z,18.9
2018-09-25T10:16:47.110Z,18.9
2018-09-25T10:17:37.570Z,18.9
2018-09-25T10:18:27.207Z,18.9
2018-09-25T10:19:18.674Z,18.8
2018-09-25T10:20:08.159Z,18.9
2018-09-25T10:20:58.092Z,18.9
2018-09-25T10:21:48.368Z,18.9
2018-09-25T10:22:38.128Z,18.9
2018-09-25T10:23:28.533Z,18.9
2018-09-25T10:24:17.792Z,18.9
2018-09-25T10:25:08.653Z,18.9
2018-09-25T10:25:58.460Z,18.9
2018-09-25T10:26:48.847Z,18.9
2018-09-25T10:27:39.415Z,18.9
2018-09-25T10:28:28.311Z,18.9
2018-09-25T10:29:18.921Z,18.9
2018-09-25T10:30:09.282Z,18.9
2018-09-25T10:30:58.210Z,18.9
2018-09-25T10:31:48.865Z,18.9
2018-09-25T10:32:38.903Z,18.9
2018-09-25T10:33:28.733Z,18.9
2018-09-25T10:34:20.636Z,18.9
2018-09-25T10:35:09.380Z,18.9
2018-09-25T10:35:58.985Z,18.9
2018-09-25T10:36:49.537Z,18.9
2018-09-25T10:37:38.754Z,18.9
2018-09-25T10:38:29.640Z,18.9
2018-09-25T10:39:19.680Z,18.9
2018-09-25T10:40:09.267Z,18.9
2018-09-25T10:41:00.743Z,18.9
2018-09-25T10:41:49.872Z,18.9
2018-09-25T10:42:40.279Z,18.9
2018-09-25T10:43:29.707Z,18.9
2018-09-25T10:44:19.314Z,18.9
2018-09-25T10:45:10.075Z,18.9
2018-09-25T10:46:00.754Z,18.9
2018-09-25T10:46:50.170Z,18.9
2018-09-25T10:47:39.215Z,18.9
2018-09-25T10:48:29.996Z,18.9
2018-09-25T10:49:20.211Z,19
2018-09-25T10:50:10.419Z,19
2018-09-25T10:51:00.129Z,19
2018-09-25T10:51:50.840Z,19
2018-09-25T10:52:40.612Z,19
2018-09-25T10:53:30.652Z,19
2018-09-25T10:54:20.715Z,19
2018-09-25T10:55:10.258Z,19
2018-09-25T10:56:05.117Z,19
2018-09-25T10:56:50.674Z,19
2018-09-25T10:57:41.485Z,19
2018-09-25T10:58:32.066Z,19
2018-09-25T10:59:21.552Z,19
2018-09-25T11:00:11.471Z,19
2018-09-25T11:01:01.824Z,19
2018-09-25T11:01:51.314Z,19
2018-09-25T11:02:41.371Z,19
2018-09-25T11:03:31.801Z,19
2018-09-25T11:04:21.762Z,19
2018-09-25T11:05:12.385Z,19
2018-09-25T11:06:01.715Z,19
2018-09-25T11:06:52.614Z,19
2018-09-25T11:07:42.309Z,19
2018-09-25T11:08:32.042Z,19
2018-09-25T11:09:21.926Z,19
2018-09-25T11:10:14.007Z,19.1
2018-09-25T11:11:01.917Z,19
2018-09-25T11:11:52.589Z,19.1
2018-09-25T11:12:41.591Z,19
2018-09-25T11:13:32.161Z,19
2018-09-25T11:14:21.994Z,19
2018-09-25T11:15:12.609Z,19.1
2018-09-25T11:16:02.853Z,19.1
2018-09-25T11:16:52.494Z,19
2018-09-25T11:17:42.589Z,19
2018-09-25T11:18:32.944Z,19.1
2018-09-25T11:19:23.201Z,19.1
2018-09-25T11:20:13.344Z,19.1
2018-09-25T11:21:02.835Z,19.1
2018-09-25T11:21:53.101Z,19.1
2018-09-25T11:22:43.073Z,19.1
2018-09-25T11:23:33.023Z,19.1
2018-09-25T11:24:23.241Z,19.1
2018-09-25T11:25:13.482Z,19.1
2018-09-25T11:26:03.408Z,19.1
2018-09-25T11:26:53.172Z,19.1
2018-09-25T11:27:43.771Z,19.1
2018-09-25T11:28:33.813Z,19.1
2018-09-25T11:29:22.778Z,19.1
2018-09-25T11:30:12.878Z,19.1
2018-09-25T11:31:04.330Z,19.1
2018-09-25T11:31:54.395Z,19.1
2018-09-25T11:32:42.823Z,19.1
2018-09-25T11:33:34.031Z,19.1
2018-09-25T11:34:24.019Z,19.1
2018-09-25T11:35:15.071Z,19.1
2018-09-25T11:36:04.151Z,19.1
2018-09-25T11:36:54.202Z,19.1
2018-09-25T11:37:44.484Z,19.1
2018-09-25T11:38:34.667Z,19.1
2018-09-25T11:39:24.702Z,19.1
2018-09-25T11:40:14.302Z,19.1
2018-09-25T11:41:05.890Z,19.1
2018-09-25T11:41:54.650Z,19.1
2018-09-25T11:42:45.287Z,19.1
2018-09-25T11:43:34.459Z,19.1
2018-09-25T11:44:25.327Z,19.1
2018-09-25T11:45:15.132Z,19.1
2018-09-25T11:46:05.465Z,19.1
2018-09-25T11:46:57.180Z,19.1
2018-09-25T11:47:45.571Z,19.1
2018-09-25T11:48:34.002Z,19.1
2018-09-25T11:49:25.427Z,19.1
2018-09-25T11:50:15.250Z,19.1
2018-09-25T11:51:04.951Z,19.1
2018-09-25T11:51:54.764Z,19.1
2018-09-25T11:52:46.467Z,19.1
2018-09-25T11:53:36.039Z,19.1
2018-09-25T11:54:25.536Z,19.1
2018-09-25T11:55:15.313Z,19.1
2018-09-25T11:56:05.082Z,19.1
2018-09-25T11:56:55.468Z,19.1
2018-09-25T11:57:45.102Z,19.1
2018-09-25T11:58:37.594Z,19.1
2018-09-25T11:59:25.624Z,19.1
2018-09-25T12:00:16.063Z,19.1
2018-09-25T12:01:05.831Z,19.1
2018-09-25T12:01:55.888Z,19.1
2018-09-25T12:02:45.929Z,19.1
2018-09-25T12:03:36.665Z,19.2
2018-09-25T12:04:25.686Z,19.1
2018-09-25T12:05:16.050Z,19.1
2018-09-25T12:06:05.843Z,19.1
2018-09-25T12:06:55.657Z,19.1
2018-09-25T12:07:46.843Z,19.1
2018-09-25T12:08:35.366Z,19.1
2018-09-25T12:09:24.832Z,19.1
2018-09-25T12:10:13.612Z,19.2
2018-09-25T12:11:05.341Z,19.1
2018-09-25T12:11:54.623Z,19.1
2018-09-25T12:12:44.937Z,19.1
2018-09-25T12:13:35.693Z,19.1
2018-09-25T12:14:25.039Z,19.1
2018-09-25T12:15:14.915Z,19.1
2018-09-25T12:16:05.075Z,19.2
2018-09-25T12:16:57.738Z,19.2
2018-09-25T12:17:47.552Z,19.2
2018-09-25T12:18:37.060Z,19.2
2018-09-25T12:19:26.331Z,19.2
2018-09-25T12:20:15.787Z,19.1
2018-09-25T12:21:07.239Z,19.2
2018-09-25T12:21:57.287Z,19.2
2018-09-25T12:22:47.669Z,19.2
2018-09-25T12:23:39.127Z,19.2
2018-09-25T12:24:29.414Z,19.2
2018-09-25T12:25:17.822Z,19.2
2018-09-25T12:26:08.198Z,19.2
2018-09-25T12:26:57.101Z,19.2
2018-09-25T12:27:47.496Z,19.2
2018-09-25T12:28:38.087Z,19.2
2018-09-25T12:29:27.854Z,19.2
2018-09-25T12:30:18.459Z,19.2
2018-09-25T12:31:08.303Z,19.2
2018-09-25T12:31:57.181Z,19.2
2018-09-25T12:32:51.603Z,19.2
2018-09-25T12:33:37.894Z,19.2
2018-09-25T12:34:28.193Z,19.2
2018-09-25T12:35:18.036Z,19.2
2018-09-25T12:36:08.341Z,19.2
2018-09-25T12:36:58.699Z,19.2
2018-09-25T12:37:49.306Z,19.2
2018-09-25T12:38:39.357Z,19.2
2018-09-25T12:39:28.845Z,19.2
2018-09-25T12:40:18.482Z,19.2
2018-09-25T12:41:09.457Z,19.2
2018-09-25T12:41:58.503Z,19.3
2018-09-25T12:42:49.400Z,19.2
2018-09-25T12:43:38.863Z,19.2
2018-09-25T12:44:29.267Z,19.2
2018-09-25T12:45:18.431Z,19.2
2018-09-25T12:46:09.663Z,19.2
2018-09-25T12:46:59.734Z,19.3
2018-09-25T12:47:48.919Z,19.2
2018-09-25T12:48:39.778Z,19.3
2018-09-25T12:49:28.500Z,19.2
2018-09-25T12:50:19.664Z,19.2
2018-09-25T12:51:09.172Z,19.2
2018-09-25T12:51:59.509Z,19.3
2018-09-25T12:52:50.141Z,19.3
2018-09-25T12:53:39.940Z,19.3
2018-09-25T12:54:30.307Z,19.3
2018-09-25T12:55:19.712Z,19.3
2018-09-25T12:56:09.826Z,19.3
2018-09-25T12:56:59.697Z,19.3
2018-09-25T12:57:50.779Z,19.3
2018-09-25T12:58:40.265Z,19.3
2018-09-25T12:59:30.377Z,19.3
2018-09-25T13:00:19.877Z,19.3
2018-09-25T13:01:10.463Z,19.3
2018-09-25T13:02:00.549Z,19.3
2018-09-25T13:02:50.626Z,19.3
2018-09-25T13:03:40.429Z,19.3
2018-09-25T13:04:30.236Z,19.3
2018-09-25T13:05:20.568Z,19.3
2018-09-25T13:06:11.496Z,19.3
2018-09-25T13:07:00.367Z,19.3
2018-09-25T13:07:50.716Z,19.3
2018-09-25T13:08:41.439Z,19.3
2018-09-25T13:09:31.459Z,19.3
2018-09-25T13:10:21.591Z,19.3
2018-09-25T13:11:11.291Z,19.3
2018-09-25T13:12:01.052Z,19.3
2018-09-25T13:12:50.534Z,19.3
2018-09-25T13:13:40.979Z,19.3
2018-09-25T13:14:31.266Z,19.3
2018-09-25T13:15:21.828Z,19.3
2018-09-25T13:16:12.901Z,19.3
2018-09-25T13:17:01.423Z,19.3
2018-09-25T13:17:52.066Z,19.3
2018-09-25T13:18:42.133Z,19.3
2018-09-25T13:19:30.514Z,19.3
2018-09-25T13:20:21.461Z,19.3
2018-09-25T13:21:12.545Z,19.3
2018-09-25T13:22:01.483Z,19.3
2018-09-25T13:22:52.436Z,19.3
2018-09-25T13:23:42.707Z,19.3
2018-09-25T13:24:32.285Z,19.3
2018-09-25T13:25:22.566Z,19.3
2018-09-25T13:26:12.341Z,19.3
2018-09-25T13:27:01.981Z,19.3
2018-09-25T13:27:52.808Z,19.3
2018-09-25T13:28:42.455Z,19.3
2018-09-25T13:29:33.055Z,19.3
2018-09-25T13:30:21.860Z,19.3
2018-09-25T13:31:12.730Z,19.3
2018-09-25T13:32:03.355Z,19.3
2018-09-25T13:32:52.847Z,19.3
2018-09-25T13:33:42.417Z,19.3
2018-09-25T13:34:33.064Z,19.3
2018-09-25T13:35:23.400Z,19.3
2018-09-25T13:36:12.544Z,19.3
2018-09-25T13:37:03.159Z,19.3
2018-09-25T13:37:52.982Z,19.3
2018-09-25T13:38:43.314Z,19.3
2018-09-25T13:39:33.327Z,19.3
2018-09-25T13:40:23.167Z,19.3
2018-09-25T13:41:13.560Z,19.3
2018-09-25T13:42:03.704Z,19.3
2018-09-25T13:42:53.927Z,19.3
2018-09-25T13:43:43.957Z,19.3
2018-09-25T13:44:32.499Z,19.3
2018-09-25T13:45:23.341Z,19.3
2018-09-25T13:46:13.322Z,19.3
2018-09-25T13:47:04.191Z,19.3
2018-09-25T13:47:54.249Z,19.3
2018-09-25T13:48:42.916Z,19.3
2018-09-25T13:49:34.149Z,19.3
2018-09-25T13:50:23.739Z,19.3
2018-09-25T13:51:14.251Z,19.3
2018-09-25T13:52:05.214Z,19.3
2018-09-25T13:52:53.546Z,19.3
2018-09-25T13:53:44.421Z,19.3
2018-09-25T13:54:34.319Z,19.3
2018-09-25T13:55:24.589Z,19.3
2018-09-25T13:56:16.669Z,19.3
2018-09-25T13:57:04.999Z,19.3
2018-09-25T13:57:54.758Z,19.3
2018-09-25T13:58:44.510Z,19.3
2018-09-25T13:59:34.592Z,19.3
2018-09-25T14:00:24.943Z,19.3
2018-09-25T14:01:14.711Z,19.3
2018-09-25T14:02:05.036Z,19.3
2018-09-25T14:02:55.433Z,19.3
2018-09-25T14:03:44.558Z,19.3
2018-09-25T14:04:35.256Z,19.3
2018-09-25T14:05:25.573Z,19.3
2018-09-25T14:06:15.416Z,19.3
2018-09-25T14:07:05.128Z,19.3
2018-09-25T14:07:55.506Z,19.3
2018-09-25T14:08:45.590Z,19.3
2018-09-25T14:09:37.099Z,19.3
2018-09-25T14:10:25.784Z,19.3
2018-09-25T14:11:16.173Z,19.3
2018-09-25T14:12:05.766Z,19.3
2018-09-25T14:12:55.305Z,19.3
2018-09-25T14:13:45.396Z,19.3
2018-09-25T14:14:35.807Z,19.3
2018-09-25T14:15:26.592Z,19.3
2018-09-25T14:16:16.145Z,19.3
2018-09-25T14:17:05.351Z,19.3
2018-09-25T14:17:55.990Z,19.3
2018-09-25T14:18:46.810Z,19.3
2018-09-25T14:19:36.382Z,19.3
2018-09-25T14:20:25.320Z,19.3
2018-09-25T14:21:16.517Z,19.3
2018-09-25T14:22:07.843Z,19.3
2018-09-25T14:22:55.814Z,19.3
2018-09-25T14:23:46.715Z,19.3
2018-09-25T14:24:37.937Z,19.3
2018-09-25T14:25:26.012Z,19.3
2018-09-25T14:26:17.102Z,19.3
2018-09-25T14:27:06.947Z,19.3
2018-09-25T14:27:58.651Z,19.3
2018-09-25T14:28:46.789Z,19.3
2018-09-25T14:29:37.169Z,19.3
2018-09-25T14:30:26.114Z,19.3
2018-09-25T14:31:16.991Z,19.3
2018-09-25T14:32:07.069Z,19.3
2018-09-25T14:32:57.644Z,19.3
2018-09-25T14:33:47.444Z,19.3
2018-09-25T14:34:37.486Z,19.3
2018-09-25T14:35:27.276Z,19.3
2018-09-25T14:36:17.611Z,19.3
2018-09-25T14:37:07.134Z,19.3
2018-09-25T14:37:57.496Z,19.3
2018-09-25T14:38:47.514Z,19.3
2018-09-25T14:39:37.611Z,19.3
2018-09-25T14:40:27.664Z,19.3
2018-09-25T14:41:17.801Z,19.3
2018-09-25T14:42:08.535Z,19.3
2018-09-25T14:42:58.116Z,19.3
2018-09-25T14:43:48.487Z,19.3
2018-09-25T14:44:38.167Z,19.3
2018-09-25T14:45:28.034Z,19.3
2018-09-25T14:46:17.805Z,19.3
2018-09-25T14:47:08.761Z,19.3
2018-09-25T14:47:59.668Z,19.3
2018-09-25T14:48:49.993Z,19.3
2018-09-25T14:49:38.636Z,19.3
2018-09-25T14:50:28.425Z,19.3
2018-09-25T14:51:18.470Z,19.3
2018-09-25T14:52:07.673Z,19.3
2018-09-25T14:52:58.336Z,19.3
2018-09-25T14:53:48.608Z,19.3
2018-09-25T14:54:40.286Z,19.3
2018-09-25T14:55:29.077Z,19.3
2018-09-25T14:56:18.553Z,19.3
2018-09-25T14:57:09.985Z,19.3
2018-09-25T14:57:59.067Z,19.3
2018-09-25T14:58:49.328Z,19.3
2018-09-25T14:59:39.691Z,19.3
2018-09-25T15:00:29.445Z,19.3
2018-09-25T15:01:19.528Z,19.3
2018-09-25T15:02:09.587Z,19.3
2018-09-25T15:02:59.303Z,19.3
2018-09-25T15:03:49.705Z,19.3
2018-09-25T15:04:39.167Z,19.3
2018-09-25T15:05:29.550Z,19.3
2018-09-25T15:06:19.594Z,19.3
2018-09-25T15:07:09.938Z,19.3
2018-09-25T15:07:59.400Z,19.3
2018-09-25T15:08:50.136Z,19.3
2018-09-25T15:09:39.682Z,19.3
2018-09-25T15:10:30.266Z,19.3
2018-09-25T15:11:20.562Z,19.3
2018-09-25T15:12:10.021Z,19.3
2018-09-25T15:13:00.126Z,19.3
2018-09-25T15:13:50.219Z,19.4
2018-09-25T15:14:40.502Z,19.3
2018-09-25T15:15:30.611Z,19.3
2018-09-25T15:16:21.169Z,19.3
2018-09-25T15:17:09.829Z,19.3
2018-09-25T15:17:59.695Z,19.3
2018-09-25T15:18:51.146Z,19.3
2018-09-25T15:19:40.976Z,19.3